»·PEaware :: DAL2950 KJFK-KSEA

DAL2950 :: KJFK-KSEA

FLIGHT INFORMATION

Flight Status: Arrived
Operator:
Delta Air Lines
More flights by this operator :: More flights under this callsign
Pilot: Andy V. (29290)
Aircraft: BOEING 737-900
(B739)
More flights by this aircraft type
Origin: KJFK Kennedy Intl
United States
Destination: KSEA Seattle-Tacoma Intl
United States
More flights between these airports :: More routes between these airports
Route: +LOSTT GLASR1
File this flight plan on PilotEdge
Remarks: Have arrival Marnr and approach Jipox for RWY34R
Altitude:
(Current/Filed)
26,000ft
Speed:
(Current/Filed)
325kts
Departed: 28-Apr-20 05:32 PM
Arrived: 28-Apr-20 07:10 PM
Distance/Time
Traveled:
2097nm/1:38
Distance/Time
To Go:
Arrived

Flight Plot

Page will automatically refresh every two minutes.

Flight plan parsing failed; only flown route is shown


Map Options




Map Legend


Flown Route
Filed Route
Departure Airport
Arrival Airport
Navaid (VOR, NDB)
Fix

Horizontal Profiles

Position Reports

Time Latitude Longitude Heading Altitude Ground
Speed
28-Apr-20 17:30 48.520174 -108.858445 280 26175ft 421kts
28-Apr-20 17:31 48.523841 -109.035745 278 26172ft 417kts
28-Apr-20 17:32 48.527095 -109.211296 276 26171ft 411kts
28-Apr-20 17:33 48.530120 -109.384940 276 26169ft 411kts
28-Apr-20 17:34 48.532929 -109.558969 276 26167ft 411kts
28-Apr-20 17:35 48.535441 -109.733539 275 26176ft 411kts
28-Apr-20 17:36 48.537564 -109.907050 275 26174ft 411kts
28-Apr-20 17:37 48.539477 -110.081118 275 26172ft 411kts
28-Apr-20 17:38 48.541199 -110.259042 275 26171ft 411kts
28-Apr-20 17:39 48.542681 -110.436494 275 26168ft 411kts
28-Apr-20 17:40 48.543942 -110.614727 275 26166ft 411kts
28-Apr-20 17:41 48.544799 -110.790786 274 26187ft 412kts
28-Apr-20 17:42 48.545357 -110.968074 274 26199ft 414kts
28-Apr-20 17:43 48.545707 -111.148387 273 26208ft 420kts
28-Apr-20 17:44 48.545800 -111.329281 273 26198ft 419kts
28-Apr-20 17:45 48.545650 -111.509846 273 26185ft 419kts
28-Apr-20 17:46 48.545226 -111.691790 273 26185ft 419kts
28-Apr-20 17:47 48.544380 -111.870666 273 26184ft 419kts
28-Apr-20 17:48 48.543286 -112.050736 273 26182ft 419kts
28-Apr-20 17:49 48.541943 -112.231568 273 26180ft 419kts
28-Apr-20 17:50 48.540364 -112.411131 273 26178ft 419kts
28-Apr-20 17:51 48.538533 -112.591794 273 26177ft 419kts
28-Apr-20 17:52 48.536351 -112.771415 272 26185ft 419kts
28-Apr-20 17:53 48.533853 -112.949842 271 26183ft 422kts
28-Apr-20 17:54 48.531091 -113.129543 270 26181ft 424kts
28-Apr-20 17:55 48.528082 -113.308912 270 26181ft 424kts
28-Apr-20 17:56 48.524810 -113.489243 270 26199ft 424kts
28-Apr-20 17:57 48.521321 -113.667902 269 26209ft 424kts
28-Apr-20 17:58 48.517423 -113.845930 269 26211ft 424kts
28-Apr-20 17:59 48.513269 -114.024174 269 26210ft 424kts
28-Apr-20 18:00 48.508875 -114.202501 269 26208ft 424kts
28-Apr-20 18:01 48.504170 -114.383100 270 26207ft 424kts
28-Apr-20 18:02 48.499343 -114.559289 270 26205ft 424kts
28-Apr-20 18:03 48.494244 -114.734329 269 26212ft 424kts
28-Apr-20 18:04 48.488739 -114.911060 269 26211ft 424kts
28-Apr-20 18:05 48.482997 -115.087794 268 26209ft 423kts
28-Apr-20 18:06 48.476995 -115.265172 268 26214ft 423kts
28-Apr-20 18:07 48.470791 -115.441493 268 26239ft 422kts
28-Apr-20 18:08 48.464351 -115.617695 268 26241ft 422kts
28-Apr-20 18:09 48.457600 -115.792410 267 26249ft 422kts
28-Apr-20 18:10 48.450498 -115.968579 267 26247ft 422kts
28-Apr-20 18:11 48.443166 -116.144571 267 26246ft 422kts
28-Apr-20 18:12 48.435582 -116.320914 267 26244ft 422kts
28-Apr-20 18:13 48.427707 -116.498371 267 26242ft 422kts
28-Apr-20 18:14 48.419628 -116.674750 266 26248ft 422kts
28-Apr-20 18:15 48.411166 -116.850422 266 26248ft 422kts
28-Apr-20 18:16 48.402478 -117.025806 266 26249ft 422kts
28-Apr-20 18:17 48.393553 -117.201231 265 26251ft 423kts
28-Apr-20 18:18 48.384471 -117.375097 265 26252ft 423kts
28-Apr-20 18:19 48.375129 -117.549405 265 26251ft 423kts
28-Apr-20 18:20 48.365642 -117.721033 264 26258ft 423kts
28-Apr-20 18:21 48.355614 -117.895757 265 26257ft 423kts
28-Apr-20 18:22 48.345382 -118.070028 265 26255ft 423kts
28-Apr-20 18:23 48.334800 -118.246178 265 26253ft 423kts
28-Apr-20 18:24 48.323969 -118.422424 265 26252ft 423kts
28-Apr-20 18:25 48.313028 -118.596519 265 26249ft 423kts
28-Apr-20 18:26 48.301648 -118.771949 264 26236ft 423kts
28-Apr-20 18:27 48.290094 -118.945223 263 26224ft 419kts
28-Apr-20 18:28 48.278534 -119.115165 263 26218ft 417kts
28-Apr-20 18:29 48.266595 -119.287307 263 26216ft 417kts
28-Apr-20 18:30 48.254483 -119.458613 263 26214ft 417kts
28-Apr-20 18:31 48.242099 -119.630297 263 26206ft 417kts
28-Apr-20 18:32 48.229375 -119.801131 262 26202ft 417kts
28-Apr-20 18:33 48.216438 -119.971443 262 26201ft 417kts
28-Apr-20 18:34 48.203017 -120.145255 262 26199ft 417kts
28-Apr-20 18:35 48.175597 -120.301179 246 26198ft 418kts
28-Apr-20 18:36 48.124656 -120.446483 244 26195ft 419kts
28-Apr-20 18:37 48.072404 -120.592629 244 24981ft 412kts
28-Apr-20 18:38 48.022619 -120.731022 243 23671ft 405kts
28-Apr-20 18:39 47.972268 -120.870326 243 22265ft 382kts
28-Apr-20 18:40 47.927298 -120.994155 243 20856ft 357kts
28-Apr-20 18:41 47.883800 -121.113429 243 19699ft 348kts
28-Apr-20 18:42 47.859689 -121.238309 267 18717ft 330kts
28-Apr-20 18:43 47.865840 -121.371947 272 17733ft 329kts
28-Apr-20 18:44 47.873922 -121.497980 272 16733ft 309kts
28-Apr-20 18:45 47.881042 -121.612557 271 15693ft 297kts
28-Apr-20 18:46 47.865631 -121.719018 241 14711ft 290kts
28-Apr-20 18:47 47.817492 -121.797480 225 13750ft 284kts
28-Apr-20 18:48 47.763072 -121.870942 225 12370ft 271kts
28-Apr-20 18:49 47.714702 -121.936147 225 11164ft 260kts
28-Apr-20 18:50 47.665169 -122.002848 226 9767ft 257kts
28-Apr-20 18:51 47.620872 -122.062330 226 8537ft 255kts
28-Apr-20 18:52 47.580459 -122.116474 227 7448ft 252kts
28-Apr-20 18:53 47.532762 -122.153826 199 6385ft 263kts
28-Apr-20 18:54 47.481776 -122.170869 197 5485ft 258kts
28-Apr-20 18:56 47.424877 -122.189873 197 4494ft 254kts
28-Apr-20 18:57 47.362728 -122.210599 196 3501ft 246kts
28-Apr-20 18:58 47.302754 -122.230528 195 3000ft 221kts
28-Apr-20 18:59 47.249355 -122.248292 195 2991ft 207kts
28-Apr-20 19:00 47.199038 -122.273527 219 2714ft 204kts
28-Apr-20 19:01 47.178191 -122.333179 307 2388ft 190kts
28-Apr-20 19:02 47.216492 -122.325463 44 2201ft 189kts
28-Apr-20 19:03 47.257287 -122.309459 359 2204ft 187kts
28-Apr-20 19:04 47.299570 -122.309132 359 2209ft 189kts
28-Apr-20 19:05 47.334392 -122.308835 358 2182ft 190kts
28-Apr-20 19:06 47.365521 -122.308569 358 1641ft 170kts
28-Apr-20 19:07 47.391375 -122.308359 358 1180ft 149kts
28-Apr-20 19:08 47.416155 -122.308163 358 728ft 149kts
28-Apr-20 19:09 47.439675 -122.308024 0 434ft 113kts
28-Apr-20 19:10 47.449796 -122.307753 23 434ft 17kts
28-Apr-20 19:11 47.449552 -122.306275 176 434ft 9kts
28-Apr-20 19:12 47.447783 -122.305078 91 434ft 10kts
28-Apr-20 19:12 47.447239 -122.303339 129 434ft 8kts
28-Apr-20 19:14 47.446596 -122.303401 222 434ft 0kts
28-Apr-20 19:15 47.446573 -122.303431 222 434ft 0kts
28-Apr-20 19:15 47.446573 -122.303431 222 434ft 0kts
28-Apr-20 19:16 47.446573 -122.303431 222 434ft 0kts
28-Apr-20 19:18 47.446573 -122.303431 222 434ft 0kts

Navigation Log

Ident Type
Flight plan parsing failed, navigation log unavailable